Sand Lake, Michigan
Current Conditions -  °F | °C
As of 7:15 AM on Saturday 20 Dec 2014 (Local Time) from KFFX Reporting Station
Clear Clear  
Wind Chill: 19°   Ceiling: Unl
Heat Index: 19°   Visibility: 10mi
Dew Point: 17°   Wind: 3mph
Humidity: 95%   Direction: 100°E
Pressure: 30.28"   Gusts: NA
Location:  43.29°N, 85.52°W
Report Text: KFFX 201215Z AUTO 10003KT 10SM CLR M07/M08 A3028 RMK AO2 T10741081
Loading
Personal Weather Stations






























Interactive Weather Map New forecast layout! Learn more

10-Day Weather Forecast

Advertisements
Track Severe Weather on mobile